Buxlink — A8SW3 — position and weather

sailwx.info

Track history (hours):
 
Tides and Currents Weather Stations Pressure Air Temp Water Temp Dewpoint Dewpoint Depression Visibility Wind Speed Wind Dir Waves Ship Positions

Buxlink

Last reported at 2018-Jun-20 02:00 UTC. Time now 2018-Jun-20 02:11 UTC.
Position N 29°41' W 094°60'.

Length 208 m; draft 8.9 m.

Type: Ship (hazmat cat A). MMSI: 636091785.

Date/timePositionNaut miles runAvg speedWind from/ knotsBaromVisibWave heightAir tempDewpointWater temp
2018-Jun-20 02:00N 29°41' W 094°60'0 0.0
2018-Jun-20 01:31N 29°41' W 094°60'0 0.0
2018-Jun-20 01:00N 29°41' W 094°60'0 0.0
2018-Jun-20 00:31N 29°41' W 094°60'0 0.0
2018-Jun-20 00:01N 29°41' W 094°60'0 0.0
2018-Jun-19 23:30N 29°41' W 094°60'0 0.3
2018-Jun-19 23:00N 29°41' W 095°00'2 5.0
2018-Jun-19 22:31N 29°39' W 094°58'611.0
2018-Jun-19 22:01N 29°34' W 094°55'612.1
2018-Jun-19 21:30N 29°29' W 094°52'612.9
2018-Jun-19 21:01N 29°23' W 094°49'611.8
2018-Jun-19 20:30N 29°21' W 094°43'611.7
2018-Jun-19 19:58N 29°18' W 094°36'4 9.1
2018-Jun-19 19:28N 29°15' W 094°32'2 4.6
2018-Jun-19 19:00N 29°15' W 094°30'1 0.1
2018-Jun-18 21:42N 29°16' W 094°29'  
2018-Jun-11 00:29N 09°38' W 080°11'611.3
2018-Jun-10 23:59N 09°38' W 080°05'5 9.8
2018-Jun-10 23:28N 09°36' W 080°00'5 9.9
2018-Jun-10 22:59N 09°33' W 079°57'5 9.9
2018-Jun-10 22:30N 09°30' W 079°53'510.6
2018-Jun-10 22:01N 09°25' W 079°54'3 5.6
2018-Jun-10 21:29N 09°22' W 079°53'0 0.2
2018-Jun-10 20:59N 09°22' W 079°53'0 0.2
2018-Jun-10 20:29N 09°22' W 079°53'0 0.0
2018-Jun-10 19:59N 09°22' W 079°53'0 0.0
2018-Jun-10 19:29N 09°22' W 079°53'0 0.0
2018-Jun-10 18:58N 09°22' W 079°53'0 0.0
2018-Jun-10 18:28N 09°22' W 079°53'0 0.0
2018-Jun-10 17:58N 09°22' W 079°53'0 0.0
2018-Jun-10 17:28N 09°22' W 079°53'0 0.0
2018-Jun-10 17:00N 09°22' W 079°53'0 0.0
2018-Jun-10 16:30N 09°22' W 079°53'0 0.0
2018-Jun-10 16:00N 09°22' W 079°53'0 0.0
2018-Jun-10 15:30N 09°22' W 079°53'0 0.0
2018-Jun-10 15:00N 09°22' W 079°53'0 0.1
2018-Jun-10 14:00N 09°22' W 079°53'0 0.0
2018-Jun-10 13:29N 09°22' W 079°53'0 0.2
2018-Jun-10 12:59N 09°22' W 079°53'0 0.0
2018-Jun-10 12:29N 09°22' W 079°53'0 0.0
2018-Jun-10 11:59N 09°22' W 079°53'0 0.2
2018-Jun-10 11:29N 09°22' W 079°53'0 0.0
2018-Jun-10 10:58N 09°22' W 079°53'0 0.2
2018-Jun-10 10:28N 09°22' W 079°53'0 0.7
2018-Jun-10 10:01N 09°22' W 079°53'3 5.5
2018-Jun-10 09:30N 09°25' W 079°54'2 3.5
2018-Jun-10 09:00N 09°26' W 079°53'0 0.2
2018-Jun-10 08:26N 09°26' W 079°53'0 0.0
2018-Jun-10 07:56N 09°26' W 079°53'0 0.0
2018-Jun-10 07:29N 09°26' W 079°53'0 0.1
2018-Jun-10 06:59N 09°26' W 079°53'0 0.2
2018-Jun-10 06:25N 09°26' W 079°53'0 0.0
2018-Jun-10 05:58N 09°26' W 079°53'0 0.0
2018-Jun-10 05:28N 09°26' W 079°53'0 0.2
2018-Jun-10 04:58N 09°26' W 079°53'0 0.1
2018-Jun-10 04:28N 09°26' W 079°53'0 0.2
2018-Jun-10 04:00N 09°26' W 079°53'0 0.2
2018-Jun-10 03:30N 09°26' W 079°53'0 0.0
2018-Jun-10 03:00N 09°26' W 079°53'  
Track history (hours):
 
Tides and Currents Weather Stations Pressure Air Temp Water Temp Dewpoint Dewpoint Depression Visibility Wind Speed Wind Dir Waves Ship Positions

Buxlink

Last reported at 2018-Jun-20 02:00 UTC. Time now 2018-Jun-20 02:11 UTC.
Position N 29°41' W 094°60'.

Length 208 m; draft 8.9 m.

Type: Ship (hazmat cat A). MMSI: 636091785.

Date/timePositionNaut miles runAvg speedWind from/ knotsBaromVisibWave heightAir tempDewpointWater temp
2018-Jun-20 02:00N 29°41' W 094°60'0 0.0
2018-Jun-20 01:31N 29°41' W 094°60'0 0.0
2018-Jun-20 01:00N 29°41' W 094°60'0 0.0
2018-Jun-20 00:31N 29°41' W 094°60'0 0.0
2018-Jun-20 00:01N 29°41' W 094°60'0 0.0
2018-Jun-19 23:30N 29°41' W 094°60'0 0.3
2018-Jun-19 23:00N 29°41' W 095°00'2 5.0
2018-Jun-19 22:31N 29°39' W 094°58'611.0
2018-Jun-19 22:01N 29°34' W 094°55'612.1
2018-Jun-19 21:30N 29°29' W 094°52'612.9
2018-Jun-19 21:01N 29°23' W 094°49'611.8
2018-Jun-19 20:30N 29°21' W 094°43'611.7
2018-Jun-19 19:58N 29°18' W 094°36'4 9.1
2018-Jun-19 19:28N 29°15' W 094°32'2 4.6
2018-Jun-19 19:00N 29°15' W 094°30'1 0.1
2018-Jun-18 21:42N 29°16' W 094°29'  
2018-Jun-11 00:29N 09°38' W 080°11'611.3
2018-Jun-10 23:59N 09°38' W 080°05'5 9.8
2018-Jun-10 23:28N 09°36' W 080°00'5 9.9
2018-Jun-10 22:59N 09°33' W 079°57'5 9.9
2018-Jun-10 22:30N 09°30' W 079°53'510.6
2018-Jun-10 22:01N 09°25' W 079°54'3 5.6
2018-Jun-10 21:29N 09°22' W 079°53'0 0.2
2018-Jun-10 20:59N 09°22' W 079°53'0 0.2
2018-Jun-10 20:29N 09°22' W 079°53'0 0.0
2018-Jun-10 19:59N 09°22' W 079°53'0 0.0
2018-Jun-10 19:29N 09°22' W 079°53'0 0.0
2018-Jun-10 18:58N 09°22' W 079°53'0 0.0
2018-Jun-10 18:28N 09°22' W 079°53'0 0.0
2018-Jun-10 17:58N 09°22' W 079°53'0 0.0
2018-Jun-10 17:28N 09°22' W 079°53'0 0.0
2018-Jun-10 17:00N 09°22' W 079°53'0 0.0
2018-Jun-10 16:30N 09°22' W 079°53'0 0.0
2018-Jun-10 16:00N 09°22' W 079°53'0 0.0
2018-Jun-10 15:30N 09°22' W 079°53'0 0.0
2018-Jun-10 15:00N 09°22' W 079°53'0 0.1
2018-Jun-10 14:00N 09°22' W 079°53'0 0.0
2018-Jun-10 13:29N 09°22' W 079°53'0 0.2
2018-Jun-10 12:59N 09°22' W 079°53'0 0.0
2018-Jun-10 12:29N 09°22' W 079°53'0 0.0
2018-Jun-10 11:59N 09°22' W 079°53'0 0.2
2018-Jun-10 11:29N 09°22' W 079°53'0 0.0
2018-Jun-10 10:58N 09°22' W 079°53'0 0.2
2018-Jun-10 10:28N 09°22' W 079°53'0 0.7
2018-Jun-10 10:01N 09°22' W 079°53'3 5.5
2018-Jun-10 09:30N 09°25' W 079°54'2 3.5
2018-Jun-10 09:00N 09°26' W 079°53'0 0.2
2018-Jun-10 08:26N 09°26' W 079°53'0 0.0
2018-Jun-10 07:56N 09°26' W 079°53'0 0.0
2018-Jun-10 07:29N 09°26' W 079°53'0 0.1
2018-Jun-10 06:59N 09°26' W 079°53'0 0.2
2018-Jun-10 06:25N 09°26' W 079°53'0 0.0
2018-Jun-10 05:58N 09°26' W 079°53'0 0.0
2018-Jun-10 05:28N 09°26' W 079°53'0 0.2
2018-Jun-10 04:58N 09°26' W 079°53'0 0.1
2018-Jun-10 04:28N 09°26' W 079°53'0 0.2
2018-Jun-10 04:00N 09°26' W 079°53'0 0.2
2018-Jun-10 03:30N 09°26' W 079°53'0 0.0
2018-Jun-10 03:00N 09°26' W 079°53'  

Dump ship's entire track history